sensor_id;sensor_type;location;lat;lon;timestamp;temperature;humidity
49222;DHT22;35047;37.588;-122.048;2023-02-08T00:00:51;23.60;46.90
49222;DHT22;35047;37.588;-122.048;2023-02-08T00:03:19;23.50;47.70
49222;DHT22;35047;37.588;-122.048;2023-02-08T00:05:46;23.40;48.00
49222;DHT22;35047;37.588;-122.048;2023-02-08T00:08:13;23.50;47.30
49222;DHT22;35047;37.588;-122.048;2023-02-08T00:10:40;23.40;47.80
49222;DHT22;35047;37.588;-122.048;2023-02-08T00:13:08;23.50;46.80
49222;DHT22;35047;37.588;-122.048;2023-02-08T00:15:34;23.50;46.20
49222;DHT22;35047;37.588;-122.048;2023-02-08T00:18:06;23.40;46.30
49222;DHT22;35047;37.588;-122.048;2023-02-08T00:20:33;23.40;46.80
49222;DHT22;35047;37.588;-122.048;2023-02-08T00:23:00;23.40;46.70
49222;DHT22;35047;37.588;-122.048;2023-02-08T00:25:27;23.40;46.30
49222;DHT22;35047;37.588;-122.048;2023-02-08T00:27:53;23.40;46.30
49222;DHT22;35047;37.588;-122.048;2023-02-08T00:30:21;23.30;46.90
49222;DHT22;35047;37.588;-122.048;2023-02-08T00:32:48;23.30;47.50
49222;DHT22;35047;37.588;-122.048;2023-02-08T00:35:14;23.20;48.30
49222;DHT22;35047;37.588;-122.048;2023-02-08T00:37:41;23.30;48.80
49222;DHT22;35047;37.588;-122.048;2023-02-08T00:40:08;23.20;49.20
49222;DHT22;35047;37.588;-122.048;2023-02-08T00:42:36;23.20;49.50
49222;DHT22;35047;37.588;-122.048;2023-02-08T00:45:03;23.20;50.20
49222;DHT22;35047;37.588;-122.048;2023-02-08T00:47:31;23.20;50.20
49222;DHT22;35047;37.588;-122.048;2023-02-08T00:49:59;23.10;50.10
49222;DHT22;35047;37.588;-122.048;2023-02-08T00:52:27;23.10;50.40
49222;DHT22;35047;37.588;-122.048;2023-02-08T00:54:54;23.00;50.60
49222;DHT22;35047;37.588;-122.048;2023-02-08T00:57:21;23.00;50.90
49222;DHT22;35047;37.588;-122.048;2023-02-08T00:59:48;22.90;51.20
49222;DHT22;35047;37.588;-122.048;2023-02-08T01:02:16;22.80;51.10
49222;DHT22;35047;37.588;-122.048;2023-02-08T01:04:43;22.80;51.80
49222;DHT22;35047;37.588;-122.048;2023-02-08T01:07:10;22.70;51.90
49222;DHT22;35047;37.588;-122.048;2023-02-08T01:09:36;22.70;52.10
49222;DHT22;35047;37.588;-122.048;2023-02-08T01:12:03;22.50;52.30
49222;DHT22;35047;37.588;-122.048;2023-02-08T01:14:30;22.50;52.40
49222;DHT22;35047;37.588;-122.048;2023-02-08T01:16:57;22.50;52.60
49222;DHT22;35047;37.588;-122.048;2023-02-08T01:19:24;22.50;53.00
49222;DHT22;35047;37.588;-122.048;2023-02-08T01:21:50;22.50;53.10
49222;DHT22;35047;37.588;-122.048;2023-02-08T01:24:18;22.40;53.10
49222;DHT22;35047;37.588;-122.048;2023-02-08T01:26:44;22.30;53.00
49222;DHT22;35047;37.588;-122.048;2023-02-08T01:29:12;22.30;53.10
49222;DHT22;35047;37.588;-122.048;2023-02-08T01:31:40;22.20;53.30
49222;DHT22;35047;37.588;-122.048;2023-02-08T01:34:08;22.20;53.30
49222;DHT22;35047;37.588;-122.048;2023-02-08T01:36:35;22.20;53.60
49222;DHT22;35047;37.588;-122.048;2023-02-08T01:39:05;22.10;53.60
49222;DHT22;35047;37.588;-122.048;2023-02-08T01:41:35;22.20;53.90
49222;DHT22;35047;37.588;-122.048;2023-02-08T01:47:11;22.10;54.10
49222;DHT22;35047;37.588;-122.048;2023-02-08T01:49:38;22.00;54.30
49222;DHT22;35047;37.588;-122.048;2023-02-08T01:52:16;21.90;54.70
49222;DHT22;35047;37.588;-122.048;2023-02-08T01:54:50;21.80;55.00
49222;DHT22;35047;37.588;-122.048;2023-02-08T01:57:20;21.70;55.20
49222;DHT22;35047;37.588;-122.048;2023-02-08T02:00:19;21.70;55.70
49222;DHT22;35047;37.588;-122.048;2023-02-08T02:02:47;21.60;56.00
49222;DHT22;35047;37.588;-122.048;2023-02-08T02:05:16;21.50;56.20
49222;DHT22;35047;37.588;-122.048;2023-02-08T02:07:44;21.30;56.60
49222;DHT22;35047;37.588;-122.048;2023-02-08T02:10:39;21.20;57.20
49222;DHT22;35047;37.588;-122.048;2023-02-08T02:13:19;21.10;57.70
49222;DHT22;35047;37.588;-122.048;2023-02-08T02:15:46;21.10;58.70
49222;DHT22;35047;37.588;-122.048;2023-02-08T02:18:20;21.00;59.40
49222;DHT22;35047;37.588;-122.048;2023-02-08T02:29:49;20.60;61.60
49222;DHT22;35047;37.588;-122.048;2023-02-08T02:43:41;20.40;62.40
49222;DHT22;35047;37.588;-122.048;2023-02-08T02:46:28;20.30;62.50
49222;DHT22;35047;37.588;-122.048;2023-02-08T02:54:16;20.20;63.00
49222;DHT22;35047;37.588;-122.048;2023-02-08T02:56:44;20.10;63.40
49222;DHT22;35047;37.588;-122.048;2023-02-08T02:59:12;20.10;63.50
49222;DHT22;35047;37.588;-122.048;2023-02-08T03:01:42;20.10;63.40
49222;DHT22;35047;37.588;-122.048;2023-02-08T03:10:38;19.90;63.40
49222;DHT22;35047;37.588;-122.048;2023-02-08T03:13:00;19.90;63.40
49222;DHT22;35047;37.588;-122.048;2023-02-08T03:15:45;19.90;63.70
49222;DHT22;35047;37.588;-122.048;2023-02-08T03:18:36;19.90;63.40
49222;DHT22;35047;37.588;-122.048;2023-02-08T03:24:23;19.80;63.40
49222;DHT22;35047;37.588;-122.048;2023-02-08T03:32:31;19.60;63.60
49222;DHT22;35047;37.588;-122.048;2023-02-08T03:35:10;19.50;63.60
49222;DHT22;35047;37.588;-122.048;2023-02-08T03:38:00;19.50;63.80
49222;DHT22;35047;37.588;-122.048;2023-02-08T03:40:38;19.40;63.60
49222;DHT22;35047;37.588;-122.048;2023-02-08T03:43:16;19.40;63.70
49222;DHT22;35047;37.588;-122.048;2023-02-08T03:46:04;19.30;63.80
49222;DHT22;35047;37.588;-122.048;2023-02-08T03:48:33;19.30;63.60
49222;DHT22;35047;37.588;-122.048;2023-02-08T03:51:02;19.30;63.60
49222;DHT22;35047;37.588;-122.048;2023-02-08T03:53:31;19.20;63.40
49222;DHT22;35047;37.588;-122.048;2023-02-08T03:56:09;19.20;63.50
49222;DHT22;35047;37.588;-122.048;2023-02-08T03:58:51;19.20;63.80
49222;DHT22;35047;37.588;-122.048;2023-02-08T04:01:31;19.20;63.60
49222;DHT22;35047;37.588;-122.048;2023-02-08T04:04:01;19.10;63.50
49222;DHT22;35047;37.588;-122.048;2023-02-08T04:06:28;19.00;63.40
49222;DHT22;35047;37.588;-122.048;2023-02-08T04:08:56;19.00;63.50
49222;DHT22;35047;37.588;-122.048;2023-02-08T04:11:22;18.90;63.60
49222;DHT22;35047;37.588;-122.048;2023-02-08T04:13:49;18.90;63.70
49222;DHT22;35047;37.588;-122.048;2023-02-08T04:16:17;18.80;63.50
49222;DHT22;35047;37.588;-122.048;2023-02-08T04:18:44;18.70;63.70
49222;DHT22;35047;37.588;-122.048;2023-02-08T04:21:11;18.60;63.80
49222;DHT22;35047;37.588;-122.048;2023-02-08T04:23:37;18.50;63.90
49222;DHT22;35047;37.588;-122.048;2023-02-08T04:26:04;18.50;64.10
49222;DHT22;35047;37.588;-122.048;2023-02-08T04:28:34;18.40;63.80
49222;DHT22;35047;37.588;-122.048;2023-02-08T04:31:01;18.30;63.70
49222;DHT22;35047;37.588;-122.048;2023-02-08T04:33:28;18.30;63.70
49222;DHT22;35047;37.588;-122.048;2023-02-08T04:35:55;18.20;63.90
49222;DHT22;35047;37.588;-122.048;2023-02-08T04:38:22;18.20;63.80
49222;DHT22;35047;37.588;-122.048;2023-02-08T04:40:49;18.20;63.70
49222;DHT22;35047;37.588;-122.048;2023-02-08T04:43:16;18.10;63.80
49222;DHT22;35047;37.588;-122.048;2023-02-08T04:45:43;18.10;63.70
49222;DHT22;35047;37.588;-122.048;2023-02-08T04:48:10;18.10;63.80
49222;DHT22;35047;37.588;-122.048;2023-02-08T04:50:36;18.00;63.60
49222;DHT22;35047;37.588;-122.048;2023-02-08T04:53:03;17.90;64.00
49222;DHT22;35047;37.588;-122.048;2023-02-08T04:55:31;17.80;64.20
49222;DHT22;35047;37.588;-122.048;2023-02-08T04:57:59;17.80;64.40
49222;DHT22;35047;37.588;-122.048;2023-02-08T05:00:26;17.70;64.30
49222;DHT22;35047;37.588;-122.048;2023-02-08T05:02:54;17.80;65.00
49222;DHT22;35047;37.588;-122.048;2023-02-08T05:05:25;17.90;63.90
49222;DHT22;35047;37.588;-122.048;2023-02-08T05:07:53;18.00;63.60
49222;DHT22;35047;37.588;-122.048;2023-02-08T05:10:21;18.00;63.40
49222;DHT22;35047;37.588;-122.048;2023-02-08T05:12:48;18.00;63.40
49222;DHT22;35047;37.588;-122.048;2023-02-08T05:15:15;17.90;63.50
49222;DHT22;35047;37.588;-122.048;2023-02-08T05:17:42;17.80;63.60
49222;DHT22;35047;37.588;-122.048;2023-02-08T05:20:10;17.70;63.90
49222;DHT22;35047;37.588;-122.048;2023-02-08T05:22:36;17.70;64.30
49222;DHT22;35047;37.588;-122.048;2023-02-08T05:25:05;17.60;64.50
49222;DHT22;35047;37.588;-122.048;2023-02-08T05:27:34;17.50;64.70
49222;DHT22;35047;37.588;-122.048;2023-02-08T05:30:03;17.50;65.20
49222;DHT22;35047;37.588;-122.048;2023-02-08T05:32:29;17.40;65.60
49222;DHT22;35047;37.588;-122.048;2023-02-08T05:34:57;17.30;65.20
49222;DHT22;35047;37.588;-122.048;2023-02-08T05:37:23;17.10;65.80
49222;DHT22;35047;37.588;-122.048;2023-02-08T05:39:51;17.10;65.90
49222;DHT22;35047;37.588;-122.048;2023-02-08T05:42:18;17.10;65.90
49222;DHT22;35047;37.588;-122.048;2023-02-08T05:44:45;17.00;65.80
49222;DHT22;35047;37.588;-122.048;2023-02-08T05:47:12;16.90;66.00
49222;DHT22;35047;37.588;-122.048;2023-02-08T05:49:40;16.90;66.20
49222;DHT22;35047;37.588;-122.048;2023-02-08T05:52:06;16.80;66.80
49222;DHT22;35047;37.588;-122.048;2023-02-08T05:54:33;16.80;68.20
49222;DHT22;35047;37.588;-122.048;2023-02-08T05:57:00;16.80;68.20
49222;DHT22;35047;37.588;-122.048;2023-02-08T05:59:27;16.80;68.80
49222;DHT22;35047;37.588;-122.048;2023-02-08T06:01:55;16.70;70.10
49222;DHT22;35047;37.588;-122.048;2023-02-08T06:04:22;16.70;69.60
49222;DHT22;35047;37.588;-122.048;2023-02-08T06:06:49;16.70;68.80
49222;DHT22;35047;37.588;-122.048;2023-02-08T06:09:16;16.60;68.50
49222;DHT22;35047;37.588;-122.048;2023-02-08T06:11:42;16.60;67.80
49222;DHT22;35047;37.588;-122.048;2023-02-08T06:14:09;16.50;67.30
49222;DHT22;35047;37.588;-122.048;2023-02-08T06:16:37;16.40;68.10
49222;DHT22;35047;37.588;-122.048;2023-02-08T06:19:03;16.40;69.00
49222;DHT22;35047;37.588;-122.048;2023-02-08T06:21:31;16.30;68.60
49222;DHT22;35047;37.588;-122.048;2023-02-08T06:23:58;16.20;68.20
49222;DHT22;35047;37.588;-122.048;2023-02-08T06:26:26;16.10;68.10
49222;DHT22;35047;37.588;-122.048;2023-02-08T06:28:53;16.00;68.10
49222;DHT22;35047;37.588;-122.048;2023-02-08T06:31:20;16.00;68.10
49222;DHT22;35047;37.588;-122.048;2023-02-08T06:33:47;16.00;67.90
49222;DHT22;35047;37.588;-122.048;2023-02-08T06:36:15;16.00;67.90
49222;DHT22;35047;37.588;-122.048;2023-02-08T06:38:41;16.00;67.90
49222;DHT22;35047;37.588;-122.048;2023-02-08T06:41:09;16.00;68.00
49222;DHT22;35047;37.588;-122.048;2023-02-08T06:43:36;16.00;67.70
49222;DHT22;35047;37.588;-122.048;2023-02-08T06:46:05;16.00;67.60
49222;DHT22;35047;37.588;-122.048;2023-02-08T06:48:34;16.00;67.90
49222;DHT22;35047;37.588;-122.048;2023-02-08T06:51:02;16.00;68.30
49222;DHT22;35047;37.588;-122.048;2023-02-08T06:53:29;15.90;67.80
49222;DHT22;35047;37.588;-122.048;2023-02-08T06:55:56;15.90;68.00
49222;DHT22;35047;37.588;-122.048;2023-02-08T06:58:23;15.80;67.60
49222;DHT22;35047;37.588;-122.048;2023-02-08T07:00:50;15.80;67.70
49222;DHT22;35047;37.588;-122.048;2023-02-08T07:03:16;15.70;67.60
49222;DHT22;35047;37.588;-122.048;2023-02-08T07:05:43;15.70;67.60
49222;DHT22;35047;37.588;-122.048;2023-02-08T07:08:10;15.70;67.60
49222;DHT22;35047;37.588;-122.048;2023-02-08T07:10:38;15.70;67.50
49222;DHT22;35047;37.588;-122.048;2023-02-08T07:13:06;15.70;67.60
49222;DHT22;35047;37.588;-122.048;2023-02-08T07:15:33;15.60;67.70
49222;DHT22;35047;37.588;-122.048;2023-02-08T07:18:00;15.60;68.10
49222;DHT22;35047;37.588;-122.048;2023-02-08T07:20:28;15.50;68.30
49222;DHT22;35047;37.588;-122.048;2023-02-08T07:22:54;15.50;68.10
49222;DHT22;35047;37.588;-122.048;2023-02-08T07:25:22;15.50;68.00
49222;DHT22;35047;37.588;-122.048;2023-02-08T07:27:48;15.50;67.80
49222;DHT22;35047;37.588;-122.048;2023-02-08T07:30:15;15.50;67.80
49222;DHT22;35047;37.588;-122.048;2023-02-08T07:32:43;15.50;67.80
49222;DHT22;35047;37.588;-122.048;2023-02-08T07:35:09;15.40;68.00
49222;DHT22;35047;37.588;-122.048;2023-02-08T07:37:37;15.40;68.10
49222;DHT22;35047;37.588;-122.048;2023-02-08T07:40:03;15.40;67.90
49222;DHT22;35047;37.588;-122.048;2023-02-08T07:42:31;15.40;67.70
49222;DHT22;35047;37.588;-122.048;2023-02-08T07:44:58;15.40;67.50
49222;DHT22;35047;37.588;-122.048;2023-02-08T07:47:25;15.40;67.70
49222;DHT22;35047;37.588;-122.048;2023-02-08T07:49:52;15.30;67.80
49222;DHT22;35047;37.588;-122.048;2023-02-08T07:52:19;15.30;68.30
49222;DHT22;35047;37.588;-122.048;2023-02-08T07:54:46;15.40;68.30
49222;DHT22;35047;37.588;-122.048;2023-02-08T07:57:12;15.30;67.90
49222;DHT22;35047;37.588;-122.048;2023-02-08T07:59:46;15.30;67.90
49222;DHT22;35047;37.588;-122.048;2023-02-08T08:02:16;15.20;67.90
49222;DHT22;35047;37.588;-122.048;2023-02-08T08:04:43;15.20;68.00
49222;DHT22;35047;37.588;-122.048;2023-02-08T08:07:09;15.10;68.20
49222;DHT22;35047;37.588;-122.048;2023-02-08T08:09:36;15.00;68.50
49222;DHT22;35047;37.588;-122.048;2023-02-08T08:12:03;15.00;68.60
49222;DHT22;35047;37.588;-122.048;2023-02-08T08:14:31;15.00;68.70
49222;DHT22;35047;37.588;-122.048;2023-02-08T08:16:57;14.90;68.30
49222;DHT22;35047;37.588;-122.048;2023-02-08T08:19:25;14.90;68.30
49222;DHT22;35047;37.588;-122.048;2023-02-08T08:21:53;14.90;67.90
49222;DHT22;35047;37.588;-122.048;2023-02-08T08:24:19;14.90;67.70
49222;DHT22;35047;37.588;-122.048;2023-02-08T08:26:47;14.80;68.10
49222;DHT22;35047;37.588;-122.048;2023-02-08T08:29:13;14.80;68.30
49222;DHT22;35047;37.588;-122.048;2023-02-08T08:31:42;14.80;69.10
49222;DHT22;35047;37.588;-122.048;2023-02-08T08:34:09;14.70;68.60
49222;DHT22;35047;37.588;-122.048;2023-02-08T08:36:36;14.70;68.90
49222;DHT22;35047;37.588;-122.048;2023-02-08T08:39:04;14.70;68.90
49222;DHT22;35047;37.588;-122.048;2023-02-08T08:41:30;14.70;68.90
49222;DHT22;35047;37.588;-122.048;2023-02-08T08:43:57;14.60;69.00
49222;DHT22;35047;37.588;-122.048;2023-02-08T08:46:23;14.60;68.80
49222;DHT22;35047;37.588;-122.048;2023-02-08T08:48:51;14.60;69.00
49222;DHT22;35047;37.588;-122.048;2023-02-08T08:51:18;14.50;69.10
49222;DHT22;35047;37.588;-122.048;2023-02-08T08:53:45;14.50;69.20
49222;DHT22;35047;37.588;-122.048;2023-02-08T08:56:13;14.40;69.40
49222;DHT22;35047;37.588;-122.048;2023-02-08T08:58:39;14.40;69.80
49222;DHT22;35047;37.588;-122.048;2023-02-08T09:01:08;14.50;69.00
49222;DHT22;35047;37.588;-122.048;2023-02-08T09:03:35;14.40;68.90
49222;DHT22;35047;37.588;-122.048;2023-02-08T09:06:02;14.40;68.60
49222;DHT22;35047;37.588;-122.048;2023-02-08T09:08:28;14.40;68.50
49222;DHT22;35047;37.588;-122.048;2023-02-08T09:10:56;14.40;69.10
49222;DHT22;35047;37.588;-122.048;2023-02-08T09:13:23;14.40;68.60
49222;DHT22;35047;37.588;-122.048;2023-02-08T09:15:50;14.30;68.60
49222;DHT22;35047;37.588;-122.048;2023-02-08T09:18:16;14.30;68.50
49222;DHT22;35047;37.588;-122.048;2023-02-08T09:20:44;14.30;68.60
49222;DHT22;35047;37.588;-122.048;2023-02-08T09:23:11;14.30;68.70
49222;DHT22;35047;37.588;-122.048;2023-02-08T09:25:40;14.20;68.70
49222;DHT22;35047;37.588;-122.048;2023-02-08T09:28:07;14.20;69.00
49222;DHT22;35047;37.588;-122.048;2023-02-08T09:30:34;14.20;68.90
49222;DHT22;35047;37.588;-122.048;2023-02-08T09:33:01;14.10;69.10
49222;DHT22;35047;37.588;-122.048;2023-02-08T09:35:28;14.00;69.50
49222;DHT22;35047;37.588;-122.048;2023-02-08T09:37:55;14.00;69.70
49222;DHT22;35047;37.588;-122.048;2023-02-08T09:40:27;14.00;69.70
49222;DHT22;35047;37.588;-122.048;2023-02-08T09:43:06;13.90;69.50
49222;DHT22;35047;37.588;-122.048;2023-02-08T09:45:58;13.90;69.60
49222;DHT22;35047;37.588;-122.048;2023-02-08T09:48:38;13.90;69.40
49222;DHT22;35047;37.588;-122.048;2023-02-08T09:51:36;13.90;70.00
49222;DHT22;35047;37.588;-122.048;2023-02-08T09:54:15;13.80;69.30
49222;DHT22;35047;37.588;-122.048;2023-02-08T09:56:44;13.80;69.70
49222;DHT22;35047;37.588;-122.048;2023-02-08T09:59:24;13.80;70.00
49222;DHT22;35047;37.588;-122.048;2023-02-08T10:02:17;13.80;70.00
49222;DHT22;35047;37.588;-122.048;2023-02-08T10:05:03;13.80;69.70
49222;DHT22;35047;37.588;-122.048;2023-02-08T10:07:31;13.80;69.60
49222;DHT22;35047;37.588;-122.048;2023-02-08T10:10:01;13.80;69.50
49222;DHT22;35047;37.588;-122.048;2023-02-08T10:12:42;13.80;69.30
49222;DHT22;35047;37.588;-122.048;2023-02-08T10:18:36;13.80;69.10
49222;DHT22;35047;37.588;-122.048;2023-02-08T10:24:07;13.70;69.40
49222;DHT22;35047;37.588;-122.048;2023-02-08T10:34:35;13.60;69.90
49222;DHT22;35047;37.588;-122.048;2023-02-08T10:37:19;13.60;69.90
49222;DHT22;35047;37.588;-122.048;2023-02-08T10:39:48;13.60;70.40
49222;DHT22;35047;37.588;-122.048;2023-02-08T10:42:18;13.60;69.50
49222;DHT22;35047;37.588;-122.048;2023-02-08T10:44:56;13.60;69.40
49222;DHT22;35047;37.588;-122.048;2023-02-08T10:47:51;13.50;69.30
49222;DHT22;35047;37.588;-122.048;2023-02-08T10:53:00;13.50;69.40
49222;DHT22;35047;37.588;-122.048;2023-02-08T10:55:29;13.40;69.40
49222;DHT22;35047;37.588;-122.048;2023-02-08T10:57:59;13.40;69.30
49222;DHT22;35047;37.588;-122.048;2023-02-08T11:00:32;13.50;69.30
49222;DHT22;35047;37.588;-122.048;2023-02-08T11:03:07;13.40;69.40
49222;DHT22;35047;37.588;-122.048;2023-02-08T11:05:39;13.40;69.60
49222;DHT22;35047;37.588;-122.048;2023-02-08T11:10:36;13.30;69.60
49222;DHT22;35047;37.588;-122.048;2023-02-08T11:13:34;13.30;69.70
49222;DHT22;35047;37.588;-122.048;2023-02-08T11:16:06;13.40;69.60
49222;DHT22;35047;37.588;-122.048;2023-02-08T11:18:57;13.40;69.70
49222;DHT22;35047;37.588;-122.048;2023-02-08T11:24:06;13.30;69.50
49222;DHT22;35047;37.588;-122.048;2023-02-08T11:26:38;13.30;69.50
49222;DHT22;35047;37.588;-122.048;2023-02-08T11:29:26;13.30;69.40
49222;DHT22;35047;37.588;-122.048;2023-02-08T11:34:25;13.20;69.50
49222;DHT22;35047;37.588;-122.048;2023-02-08T11:36:53;13.20;69.40
49222;DHT22;35047;37.588;-122.048;2023-02-08T11:39:29;13.20;69.20
49222;DHT22;35047;37.588;-122.048;2023-02-08T11:41:59;13.20;69.40
49222;DHT22;35047;37.588;-122.048;2023-02-08T11:44:50;13.20;69.40
49222;DHT22;35047;37.588;-122.048;2023-02-08T11:47:22;13.10;69.30
49222;DHT22;35047;37.588;-122.048;2023-02-08T11:49:59;13.10;69.60
49222;DHT22;35047;37.588;-122.048;2023-02-08T11:52:33;13.10;69.70
49222;DHT22;35047;37.588;-122.048;2023-02-08T11:55:22;13.00;69.80
49222;DHT22;35047;37.588;-122.048;2023-02-08T11:58:13;13.10;70.10
49222;DHT22;35047;37.588;-122.048;2023-02-08T12:01:01;13.00;69.90
49222;DHT22;35047;37.588;-122.048;2023-02-08T12:03:39;13.10;69.60
49222;DHT22;35047;37.588;-122.048;2023-02-08T12:06:29;13.00;69.50
49222;DHT22;35047;37.588;-122.048;2023-02-08T12:14:46;12.90;70.30
49222;DHT22;35047;37.588;-122.048;2023-02-08T12:17:34;12.90;69.90
49222;DHT22;35047;37.588;-122.048;2023-02-08T12:21:06;12.90;69.70
49222;DHT22;35047;37.588;-122.048;2023-02-08T12:31:33;12.80;69.40
49222;DHT22;35047;37.588;-122.048;2023-02-08T12:37:33;12.70;70.00
49222;DHT22;35047;37.588;-122.048;2023-02-08T12:40:33;12.70;69.80
49222;DHT22;35047;37.588;-122.048;2023-02-08T12:46:16;12.60;70.90
49222;DHT22;35047;37.588;-122.048;2023-02-08T12:54:40;12.50;71.00
49222;DHT22;35047;37.588;-122.048;2023-02-08T12:57:12;12.50;71.00
49222;DHT22;35047;37.588;-122.048;2023-02-08T12:59:54;12.50;71.00
49222;DHT22;35047;37.588;-122.048;2023-02-08T13:02:41;12.50;70.70
49222;DHT22;35047;37.588;-122.048;2023-02-08T13:05:20;12.50;70.80
49222;DHT22;35047;37.588;-122.048;2023-02-08T13:07:49;12.50;71.10
49222;DHT22;35047;37.588;-122.048;2023-02-08T13:10:38;12.50;71.20
49222;DHT22;35047;37.588;-122.048;2023-02-08T13:13:27;12.50;71.20
49222;DHT22;35047;37.588;-122.048;2023-02-08T13:21:36;12.50;71.20
49222;DHT22;35047;37.588;-122.048;2023-02-08T13:24:24;12.50;70.90
49222;DHT22;35047;37.588;-122.048;2023-02-08T13:26:53;12.60;70.70
49222;DHT22;35047;37.588;-122.048;2023-02-08T13:29:22;12.60;70.60
49222;DHT22;35047;37.588;-122.048;2023-02-08T13:35:15;12.60;70.40
49222;DHT22;35047;37.588;-122.048;2023-02-08T13:38:15;12.60;70.30
49222;DHT22;35047;37.588;-122.048;2023-02-08T13:40:39;12.60;70.30
49222;DHT22;35047;37.588;-122.048;2023-02-08T13:45:44;12.60;70.30
49222;DHT22;35047;37.588;-122.048;2023-02-08T13:48:16;12.60;70.40
49222;DHT22;35047;37.588;-122.048;2023-02-08T13:50:54;12.60;70.40
49222;DHT22;35047;37.588;-122.048;2023-02-08T13:56:10;12.60;70.60
49222;DHT22;35047;37.588;-122.048;2023-02-08T13:59:04;12.60;70.80
49222;DHT22;35047;37.588;-122.048;2023-02-08T14:01:35;12.60;71.10
49222;DHT22;35047;37.588;-122.048;2023-02-08T14:04:34;12.60;71.10
49222;DHT22;35047;37.588;-122.048;2023-02-08T14:10:02;12.60;71.10
49222;DHT22;35047;37.588;-122.048;2023-02-08T14:12:55;12.60;71.00
49222;DHT22;35047;37.588;-122.048;2023-02-08T14:15:30;12.60;70.70
49222;DHT22;35047;37.588;-122.048;2023-02-08T14:17:59;12.60;70.40
49222;DHT22;35047;37.588;-122.048;2023-02-08T14:20:38;12.50;70.20
49222;DHT22;35047;37.588;-122.048;2023-02-08T14:23:22;12.50;70.20
49222;DHT22;35047;37.588;-122.048;2023-02-08T14:25:51;12.50;70.40
49222;DHT22;35047;37.588;-122.048;2023-02-08T14:28:32;12.50;70.20
49222;DHT22;35047;37.588;-122.048;2023-02-08T14:31:04;12.50;70.20
49222;DHT22;35047;37.588;-122.048;2023-02-08T14:33:37;12.50;70.20
49222;DHT22;35047;37.588;-122.048;2023-02-08T14:36:30;12.40;70.00
49222;DHT22;35047;37.588;-122.048;2023-02-08T14:39:24;12.40;70.00
49222;DHT22;35047;37.588;-122.048;2023-02-08T14:42:00;12.40;69.90
49222;DHT22;35047;37.588;-122.048;2023-02-08T14:50:16;12.40;70.80
49222;DHT22;35047;37.588;-122.048;2023-02-08T14:55:24;12.30;70.70
49222;DHT22;35047;37.588;-122.048;2023-02-08T14:57:56;12.20;70.90
49222;DHT22;35047;37.588;-122.048;2023-02-08T15:00:36;12.20;70.80
49222;DHT22;35047;37.588;-122.048;2023-02-08T15:03:04;12.20;70.60
49222;DHT22;35047;37.588;-122.048;2023-02-08T15:06:42;12.20;70.40
49222;DHT22;35047;37.588;-122.048;2023-02-08T15:08:38;12.20;70.50
49222;DHT22;35047;37.588;-122.048;2023-02-08T15:11:20;12.20;70.80
49222;DHT22;35047;37.588;-122.048;2023-02-08T15:13:54;12.20;70.80
49222;DHT22;35047;37.588;-122.048;2023-02-08T15:16:21;12.10;71.00
49222;DHT22;35047;37.588;-122.048;2023-02-08T15:18:51;12.10;71.20
49222;DHT22;35047;37.588;-122.048;2023-02-08T15:21:21;12.20;71.40
49222;DHT22;35047;37.588;-122.048;2023-02-08T15:24:17;12.20;71.30
49222;DHT22;35047;37.588;-122.048;2023-02-08T15:26:56;12.20;71.30
49222;DHT22;35047;37.588;-122.048;2023-02-08T15:29:25;12.20;71.70
49222;DHT22;35047;37.588;-122.048;2023-02-08T15:31:54;12.20;72.00
49222;DHT22;35047;37.588;-122.048;2023-02-08T15:34:24;12.20;72.10
49222;DHT22;35047;37.588;-122.048;2023-02-08T15:36:54;12.20;72.50
49222;DHT22;35047;37.588;-122.048;2023-02-08T15:39:35;12.30;72.70
49222;DHT22;35047;37.588;-122.048;2023-02-08T15:42:12;12.30;72.80
49222;DHT22;35047;37.588;-122.048;2023-02-08T15:44:42;12.30;73.00
49222;DHT22;35047;37.588;-122.048;2023-02-08T15:47:19;12.40;72.90
49222;DHT22;35047;37.588;-122.048;2023-02-08T15:49:49;12.40;72.80
49222;DHT22;35047;37.588;-122.048;2023-02-08T15:52:26;12.40;73.30
49222;DHT22;35047;37.588;-122.048;2023-02-08T15:54:55;12.40;73.40
49222;DHT22;35047;37.588;-122.048;2023-02-08T15:57:42;12.50;73.70
49222;DHT22;35047;37.588;-122.048;2023-02-08T16:00:19;12.50;73.50
49222;DHT22;35047;37.588;-122.048;2023-02-08T16:02:58;12.60;73.30
49222;DHT22;35047;37.588;-122.048;2023-02-08T16:05:28;12.60;73.40
49222;DHT22;35047;37.588;-122.048;2023-02-08T16:07:57;12.60;73.50
49222;DHT22;35047;37.588;-122.048;2023-02-08T16:10:34;12.70;74.30
49222;DHT22;35047;37.588;-122.048;2023-02-08T16:13:12;12.80;73.70
49222;DHT22;35047;37.588;-122.048;2023-02-08T16:15:43;12.80;74.10
49222;DHT22;35047;37.588;-122.048;2023-02-08T16:21:40;13.00;74.20
49222;DHT22;35047;37.588;-122.048;2023-02-08T16:26:43;13.20;74.60
49222;DHT22;35047;37.588;-122.048;2023-02-08T16:34:33;13.50;74.90
49222;DHT22;35047;37.588;-122.048;2023-02-08T16:37:02;13.60;74.90
49222;DHT22;35047;37.588;-122.048;2023-02-08T16:42:38;13.90;75.10
49222;DHT22;35047;37.588;-122.048;2023-02-08T16:47:43;14.10;75.20
49222;DHT22;35047;37.588;-122.048;2023-02-08T16:50:16;14.20;75.70
49222;DHT22;35047;37.588;-122.048;2023-02-08T16:52:54;14.30;74.90
49222;DHT22;35047;37.588;-122.048;2023-02-08T16:55:26;14.40;75.60
49222;DHT22;35047;37.588;-122.048;2023-02-08T16:57:56;14.60;75.70
49222;DHT22;35047;37.588;-122.048;2023-02-08T17:00:28;14.80;75.50
49222;DHT22;35047;37.588;-122.048;2023-02-08T17:02:57;15.00;75.00
49222;DHT22;35047;37.588;-122.048;2023-02-08T17:05:31;15.30;75.20
49222;DHT22;35047;37.588;-122.048;2023-02-08T17:07:58;15.60;75.60
49222;DHT22;35047;37.588;-122.048;2023-02-08T17:10:26;16.00;75.90
49222;DHT22;35047;37.588;-122.048;2023-02-08T17:12:54;16.20;74.50
49222;DHT22;35047;37.588;-122.048;2023-02-08T17:15:21;16.50;73.90
49222;DHT22;35047;37.588;-122.048;2023-02-08T17:17:51;16.80;72.20
49222;DHT22;35047;37.588;-122.048;2023-02-08T17:20:29;17.00;70.80
49222;DHT22;35047;37.588;-122.048;2023-02-08T17:22:58;17.30;70.00
49222;DHT22;35047;37.588;-122.048;2023-02-08T17:25:25;17.60;69.60
49222;DHT22;35047;37.588;-122.048;2023-02-08T17:28:02;17.90;68.30
49222;DHT22;35047;37.588;-122.048;2023-02-08T17:32:58;18.30;66.90
49222;DHT22;35047;37.588;-122.048;2023-02-08T17:35:27;18.40;66.90